SIM037 EDDB-EDNY
Flight info
| Callsign | SIM037 |
|---|---|
| Flight time | N/A |
| Altitude | 20000 |
| Route | KISUC1B/06L KISUC Z20 ORTAG/N0237F190 Z117 KEGOS N869 TEDGO N851 LOKTA T122 ARFAS |
| Aircraft | DC6/M-SDFGIRWYZ/LB1D1 |
Departure
| Time | N/A |
|---|---|
| Airport | Berlin Brandenburg Airport (EDDB) |
Arrival
| Time | 2026-05-05 15:34 |
|---|---|
| Airport | Bodensee Airport Friedrichshafen (EDNY) |
| Time | Latitude | Longitude | Altitude | Speed | Heading |
|---|---|---|---|---|---|
| 2026-05-05 14:54 | 49.33068 | 10.47070 | 19838 ft | 250 kts | 225° |
| 2026-05-05 14:54 | 49.31903 | 10.45041 | 19836 ft | 249 kts | 225° |
| 2026-05-05 14:54 | 49.30756 | 10.43048 | 19834 ft | 249 kts | 225° |
| 2026-05-05 14:54 | 49.29608 | 10.41052 | 19835 ft | 249 kts | 225° |
| 2026-05-05 14:55 | 49.28477 | 10.39087 | 19840 ft | 249 kts | 225° |
| 2026-05-05 14:55 | 49.27333 | 10.37104 | 19838 ft | 248 kts | 225° |
| 2026-05-05 14:55 | 49.26187 | 10.35117 | 19838 ft | 249 kts | 225° |
| 2026-05-05 14:55 | 49.25040 | 10.33130 | 19845 ft | 249 kts | 225° |
| 2026-05-05 14:56 | 49.23890 | 10.31141 | 19846 ft | 249 kts | 225° |
| 2026-05-05 14:56 | 49.22742 | 10.29153 | 19846 ft | 249 kts | 225° |
| 2026-05-05 14:56 | 49.21590 | 10.27162 | 19839 ft | 249 kts | 225° |
| 2026-05-05 14:56 | 49.20453 | 10.25202 | 19843 ft | 249 kts | 225° |
| 2026-05-05 14:57 | 49.19304 | 10.23215 | 19842 ft | 249 kts | 225° |
| 2026-05-05 14:57 | 49.18155 | 10.21235 | 19846 ft | 249 kts | 225° |
| 2026-05-05 14:57 | 49.17007 | 10.19257 | 19845 ft | 249 kts | 225° |
| 2026-05-05 14:57 | 49.15857 | 10.17277 | 19842 ft | 249 kts | 225° |
| 2026-05-05 14:58 | 49.14707 | 10.15298 | 19844 ft | 249 kts | 225° |
| 2026-05-05 14:58 | 49.13554 | 10.13316 | 19847 ft | 249 kts | 225° |
| 2026-05-05 14:58 | 49.12403 | 10.11337 | 19848 ft | 249 kts | 225° |
| 2026-05-05 14:58 | 49.11251 | 10.09363 | 19848 ft | 249 kts | 225° |
| 2026-05-05 14:59 | 49.10101 | 10.07382 | 19848 ft | 249 kts | 225° |
| 2026-05-05 14:59 | 49.08945 | 10.05405 | 19849 ft | 250 kts | 225° |
| 2026-05-05 14:59 | 49.07779 | 10.03412 | 19756 ft | 254 kts | 225° |
| 2026-05-05 14:59 | 49.06594 | 10.01382 | 19677 ft | 257 kts | 225° |
| 2026-05-05 15:00 | 49.05414 | 9.99357 | 19605 ft | 259 kts | 225° |
| 2026-05-05 15:00 | 49.04599 | 9.97966 | 19535 ft | 261 kts | 225° |
| 2026-05-05 15:00 | 49.02957 | 9.95173 | 19214 ft | 272 kts | 225° |
| 2026-05-05 15:00 | 49.01687 | 9.93003 | 19004 ft | 276 kts | 225° |
| 2026-05-05 15:01 | 49.00398 | 9.90804 | 18795 ft | 280 kts | 226° |
| 2026-05-05 15:01 | 48.99093 | 9.88583 | 18600 ft | 283 kts | 226° |
| 2026-05-05 15:01 | 48.97777 | 9.86344 | 18392 ft | 284 kts | 226° |
| 2026-05-05 15:01 | 48.96456 | 9.84095 | 18203 ft | 286 kts | 226° |
| 2026-05-05 15:02 | 48.95126 | 9.81838 | 17981 ft | 287 kts | 226° |
| 2026-05-05 15:02 | 48.93790 | 9.79569 | 17761 ft | 288 kts | 226° |
| 2026-05-05 15:02 | 48.92451 | 9.77299 | 17576 ft | 288 kts | 226° |
| 2026-05-05 15:02 | 48.91112 | 9.75032 | 17380 ft | 288 kts | 226° |
| 2026-05-05 15:03 | 48.89773 | 9.72764 | 17186 ft | 288 kts | 226° |
| 2026-05-05 15:03 | 48.88432 | 9.70497 | 16998 ft | 288 kts | 226° |
| 2026-05-05 15:03 | 48.87085 | 9.68224 | 16668 ft | 292 kts | 226° |
| 2026-05-05 15:03 | 48.85722 | 9.65919 | 16347 ft | 294 kts | 226° |
| 2026-05-05 15:04 | 48.84353 | 9.63603 | 16039 ft | 296 kts | 226° |
| 2026-05-05 15:04 | 48.82982 | 9.61293 | 15728 ft | 291 kts | 226° |
| 2026-05-05 15:04 | 48.81638 | 9.59034 | 15409 ft | 285 kts | 226° |
| 2026-05-05 15:04 | 48.80338 | 9.56849 | 15245 ft | 273 kts | 226° |
| 2026-05-05 15:05 | 48.77898 | 9.52749 | 14809 ft | 258 kts | 227° |
| 2026-05-05 15:05 | 48.76701 | 9.50739 | 14565 ft | 255 kts | 227° |
| 2026-05-05 15:05 | 48.75520 | 9.48759 | 14324 ft | 252 kts | 227° |
| 2026-05-05 15:06 | 48.74346 | 9.46790 | 14078 ft | 250 kts | 227° |
| 2026-05-05 15:06 | 48.73561 | 9.45472 | 13919 ft | 248 kts | 227° |
| 2026-05-05 15:06 | 48.72404 | 9.43540 | 13677 ft | 247 kts | 227° |
| 2026-05-05 15:06 | 48.71258 | 9.41623 | 13417 ft | 245 kts | 227° |
| 2026-05-05 15:07 | 48.70135 | 9.39744 | 13155 ft | 242 kts | 227° |
| 2026-05-05 15:07 | 48.69009 | 9.37861 | 12898 ft | 240 kts | 227° |
| 2026-05-05 15:07 | 48.67896 | 9.36008 | 12707 ft | 235 kts | 227° |
| 2026-05-05 15:07 | 48.66808 | 9.34190 | 12534 ft | 231 kts | 227° |
| 2026-05-05 15:08 | 48.65738 | 9.32407 | 12355 ft | 227 kts | 227° |
| 2026-05-05 15:08 | 48.64682 | 9.30650 | 12159 ft | 225 kts | 227° |
| 2026-05-05 15:08 | 48.63637 | 9.28911 | 11972 ft | 222 kts | 227° |
| 2026-05-05 15:08 | 48.62602 | 9.27194 | 11792 ft | 219 kts | 226° |
| 2026-05-05 15:09 | 48.61378 | 9.25874 | 11591 ft | 217 kts | 204° |
| 2026-05-05 15:09 | 48.59902 | 9.25462 | 11456 ft | 215 kts | 186° |
| 2026-05-05 15:09 | 48.58426 | 9.25335 | 11362 ft | 210 kts | 187° |
| 2026-05-05 15:09 | 48.56976 | 9.25104 | 11192 ft | 209 kts | 189° |
| 2026-05-05 15:10 | 48.55532 | 9.24847 | 11016 ft | 209 kts | 189° |
| 2026-05-05 15:10 | 48.54089 | 9.24598 | 10850 ft | 208 kts | 189° |
| 2026-05-05 15:10 | 48.52653 | 9.24354 | 10700 ft | 207 kts | 189° |
| 2026-05-05 15:10 | 48.51232 | 9.24114 | 10570 ft | 204 kts | 189° |
| 2026-05-05 15:11 | 48.49827 | 9.23877 | 10435 ft | 202 kts | 189° |
| 2026-05-05 15:11 | 48.48429 | 9.23637 | 10319 ft | 201 kts | 189° |
| 2026-05-05 15:11 | 48.47042 | 9.23404 | 10193 ft | 200 kts | 189° |
| 2026-05-05 15:11 | 48.45660 | 9.23169 | 10069 ft | 200 kts | 189° |
| 2026-05-05 15:12 | 48.44283 | 9.22935 | 9915 ft | 199 kts | 189° |
| 2026-05-05 15:12 | 48.42901 | 9.22701 | 9798 ft | 200 kts | 189° |
| 2026-05-05 15:12 | 48.41521 | 9.22465 | 9685 ft | 200 kts | 189° |
| 2026-05-05 15:12 | 48.40133 | 9.22231 | 9575 ft | 201 kts | 189° |
| 2026-05-05 15:13 | 48.38745 | 9.21999 | 9462 ft | 201 kts | 190° |
| 2026-05-05 15:13 | 48.37371 | 9.21758 | 9339 ft | 201 kts | 190° |
| 2026-05-05 15:13 | 48.35981 | 9.21532 | 9233 ft | 201 kts | 189° |
| 2026-05-05 15:13 | 48.34589 | 9.21297 | 9120 ft | 201 kts | 190° |
| 2026-05-05 15:14 | 48.33199 | 9.21058 | 9014 ft | 201 kts | 190° |
| 2026-05-05 15:14 | 48.31807 | 9.20827 | 8892 ft | 201 kts | 190° |
| 2026-05-05 15:14 | 48.30396 | 9.20585 | 8695 ft | 205 kts | 189° |
| 2026-05-05 15:14 | 48.28968 | 9.20345 | 8515 ft | 208 kts | 189° |
| 2026-05-05 15:15 | 48.27524 | 9.20102 | 8333 ft | 209 kts | 189° |
| 2026-05-05 15:15 | 48.26087 | 9.19863 | 8238 ft | 206 kts | 190° |
| 2026-05-05 15:15 | 48.24668 | 9.19621 | 8150 ft | 204 kts | 190° |
| 2026-05-05 15:15 | 48.23263 | 9.19387 | 8064 ft | 203 kts | 190° |
| 2026-05-05 15:16 | 48.21862 | 9.19151 | 7972 ft | 202 kts | 190° |
| 2026-05-05 15:16 | 48.20488 | 9.18919 | 7886 ft | 201 kts | 190° |
| 2026-05-05 15:16 | 48.19100 | 9.18687 | 7794 ft | 200 kts | 190° |
| 2026-05-05 15:16 | 48.17715 | 9.18454 | 7720 ft | 200 kts | 190° |
| 2026-05-05 15:17 | 48.16332 | 9.18296 | 7617 ft | 200 kts | 182° |
| 2026-05-05 15:17 | 48.14942 | 9.18543 | 7525 ft | 201 kts | 176° |
| 2026-05-05 15:17 | 48.13560 | 9.18817 | 7481 ft | 199 kts | 178° |
| 2026-05-05 15:17 | 48.12191 | 9.19045 | 7437 ft | 197 kts | 178° |
| 2026-05-05 15:18 | 48.10829 | 9.19271 | 7403 ft | 197 kts | 179° |
| 2026-05-05 15:18 | 48.09468 | 9.19500 | 7369 ft | 198 kts | 179° |
| 2026-05-05 15:18 | 48.08085 | 9.19735 | 7341 ft | 201 kts | 178° |
| 2026-05-05 15:18 | 48.06693 | 9.19973 | 7328 ft | 202 kts | 178° |
| 2026-05-05 15:19 | 48.05282 | 9.20212 | 7278 ft | 206 kts | 178° |
| 2026-05-05 15:19 | 48.03843 | 9.20458 | 7183 ft | 210 kts | 178° |
| 2026-05-05 15:19 | 48.02398 | 9.20703 | 7116 ft | 213 kts | 178° |
| 2026-05-05 15:19 | 48.00918 | 9.20955 | 7050 ft | 215 kts | 178° |
| 2026-05-05 15:20 | 47.99424 | 9.21207 | 7005 ft | 216 kts | 178° |
| 2026-05-05 15:20 | 47.97923 | 9.21461 | 6943 ft | 218 kts | 178° |
| 2026-05-05 15:20 | 47.96409 | 9.21718 | 6900 ft | 220 kts | 178° |
| 2026-05-05 15:20 | 47.94883 | 9.21976 | 6823 ft | 222 kts | 178° |
| 2026-05-05 15:21 | 47.93322 | 9.22238 | 6654 ft | 228 kts | 178° |
| 2026-05-05 15:21 | 47.91731 | 9.22508 | 6486 ft | 232 kts | 178° |
| 2026-05-05 15:21 | 47.90116 | 9.22776 | 6358 ft | 235 kts | 177° |
| 2026-05-05 15:21 | 47.88479 | 9.23048 | 6223 ft | 237 kts | 177° |
| 2026-05-05 15:22 | 47.86881 | 9.23658 | 6124 ft | 245 kts | 159° |
| 2026-05-05 15:22 | 47.85526 | 9.25204 | 6121 ft | 252 kts | 135° |
| 2026-05-05 15:22 | 47.84659 | 9.27501 | 5944 ft | 254 kts | 110° |
| 2026-05-05 15:22 | 47.84492 | 9.30033 | 5949 ft | 246 kts | 85° |
| 2026-05-05 15:23 | 47.84888 | 9.32458 | 5936 ft | 237 kts | 74° |
| 2026-05-05 15:23 | 47.85221 | 9.34803 | 5933 ft | 228 kts | 85° |
| 2026-05-05 15:23 | 47.85265 | 9.37120 | 5929 ft | 221 kts | 91° |
| 2026-05-05 15:23 | 47.85280 | 9.39388 | 5936 ft | 218 kts | 90° |
| 2026-05-05 15:24 | 47.85332 | 9.41634 | 5943 ft | 217 kts | 90° |
| 2026-05-05 15:24 | 47.85392 | 9.43890 | 5961 ft | 221 kts | 89° |
| 2026-05-05 15:24 | 47.85449 | 9.46217 | 5901 ft | 231 kts | 89° |
| 2026-05-05 15:24 | 47.85523 | 9.48654 | 5760 ft | 238 kts | 89° |
| 2026-05-05 15:25 | 47.85592 | 9.51146 | 5524 ft | 243 kts | 88° |
| 2026-05-05 15:25 | 47.85662 | 9.53656 | 5412 ft | 240 kts | 89° |
| 2026-05-05 15:25 | 47.85735 | 9.56110 | 5410 ft | 234 kts | 88° |
| 2026-05-05 15:25 | 47.85798 | 9.58517 | 5411 ft | 230 kts | 89° |
| 2026-05-05 15:26 | 47.85865 | 9.60842 | 5346 ft | 226 kts | 88° |
| 2026-05-05 15:26 | 47.85930 | 9.63163 | 5226 ft | 225 kts | 89° |
| 2026-05-05 15:26 | 47.85989 | 9.65530 | 5039 ft | 227 kts | 89° |
| 2026-05-05 15:26 | 47.86043 | 9.67856 | 4855 ft | 228 kts | 89° |
| 2026-05-05 15:27 | 47.86097 | 9.70211 | 4653 ft | 228 kts | 89° |
| 2026-05-05 15:27 | 47.86081 | 9.71964 | 4487 ft | 228 kts | 99° |
| 2026-05-05 15:27 | 47.85370 | 9.74027 | 4216 ft | 227 kts | 137° |
| 2026-05-05 15:27 | 47.83988 | 9.75011 | 3961 ft | 221 kts | 176° |
| 2026-05-05 15:28 | 47.82505 | 9.75367 | 3903 ft | 210 kts | 168° |
| 2026-05-05 15:28 | 47.81141 | 9.76038 | 3861 ft | 204 kts | 159° |
| 2026-05-05 15:28 | 47.79911 | 9.76972 | 3871 ft | 193 kts | 158° |
| 2026-05-05 15:28 | 47.78692 | 9.77639 | 3820 ft | 181 kts | 178° |
| 2026-05-05 15:29 | 47.77571 | 9.77079 | 3777 ft | 168 kts | 228° |
| 2026-05-05 15:29 | 47.77059 | 9.75645 | 3910 ft | 151 kts | 244° |
| 2026-05-05 15:29 | 47.76431 | 9.74376 | 3928 ft | 155 kts | 233° |
| 2026-05-05 15:29 | 47.75718 | 9.73166 | 3967 ft | 163 kts | 234° |
| 2026-05-05 15:30 | 47.75100 | 9.71669 | 3977 ft | 177 kts | 240° |
| 2026-05-05 15:30 | 47.74438 | 9.70037 | 3949 ft | 190 kts | 240° |
| 2026-05-05 15:30 | 47.73759 | 9.68315 | 3843 ft | 199 kts | 242° |
| 2026-05-05 15:30 | 47.73079 | 9.66492 | 3560 ft | 202 kts | 242° |
| 2026-05-05 15:31 | 47.72376 | 9.64723 | 3291 ft | 194 kts | 240° |
| 2026-05-05 15:31 | 47.71742 | 9.63065 | 3029 ft | 175 kts | 243° |
| 2026-05-05 15:31 | 47.71180 | 9.61604 | 2782 ft | 151 kts | 241° |
| 2026-05-05 15:31 | 47.70679 | 9.60320 | 2530 ft | 134 kts | 242° |
| 2026-05-05 15:32 | 47.70272 | 9.59252 | 2516 ft | 114 kts | 240° |
| 2026-05-05 15:32 | 47.69860 | 9.58198 | 2342 ft | 122 kts | 241° |
| 2026-05-05 15:32 | 47.69427 | 9.57071 | 2145 ft | 128 kts | 239° |
| 2026-05-05 15:32 | 47.68975 | 9.55917 | 1972 ft | 129 kts | 240° |
| 2026-05-05 15:33 | 47.68545 | 9.54783 | 1793 ft | 122 kts | 239° |
| 2026-05-05 15:33 | 47.68124 | 9.53722 | 1636 ft | 116 kts | 240° |
| 2026-05-05 15:33 | 47.67759 | 9.52745 | 1450 ft | 102 kts | 239° |
| 2026-05-05 15:33 | 47.67427 | 9.51918 | 1369 ft | 84 kts | 244° |
| 2026-05-05 15:34 | 47.67203 | 9.51313 | 1364 ft | 42 kts | 236° |
| 2026-05-05 15:34 | 47.67097 | 9.51274 | 1361 ft | 14 kts | 144° |
| 2026-05-05 15:34 | 47.67036 | 9.51351 | 1362 ft | 8 kts | 115° |
| 2026-05-05 15:34 | 47.67058 | 9.51440 | 1363 ft | 16 kts | 60° |
| 2026-05-05 15:35 | 47.67129 | 9.51617 | 1365 ft | 24 kts | 59° |